Time;durP1;ratioP1;P1;durP2;ratioP2;P2;SDS_P1;SDS_P2;PMS_P1;PMS_P2;Temp;Humidity;BMP_temperature;BMP_pressure;BME280_temperature;BME280_humidity;BME280_pressure;Samples;Min_cycle;Max_cycle;Signal;HPM_P1;HPM_P2
2022/12/06 00:01:08;;;;;;;15.80;9.80;;;;;;;4.19;100.00;102042.88;5013494;28;20101;-77
2022/12/06 00:03:44;;;;;;;15.70;9.68;;;;;;;4.30;100.00;102055.47;5013513;28;20436;-83
2022/12/06 00:06:13;;;;;;;16.73;10.25;;;;;;;4.28;100.00;102058.06;5012088;28;20037;-80
2022/12/06 00:08:39;;;;;;;16.42;9.90;;;;;;;4.13;100.00;102031.91;5013367;28;20112;-83
2022/12/06 00:11:15;;;;;;;17.33;10.38;;;;;;;4.30;100.00;102058.03;5013307;28;20466;-79
2022/12/06 00:13:41;;;;;;;15.93;9.93;;;;;;;4.28;100.00;102049.56;5013268;28;20030;-77
2022/12/06 00:16:10;;;;;;;15.20;9.70;;;;;;;4.11;100.00;102020.88;5013391;28;20073;-78
2022/12/06 00:18:37;;;;;;;14.18;9.13;;;;;;;4.13;100.00;102032.78;5013246;28;20402;-84
2022/12/06 00:21:13;;;;;;;15.52;9.73;;;;;;;4.25;100.00;102054.72;5012965;28;20076;-85
2022/12/06 00:23:41;;;;;;;16.55;10.27;;;;;;;4.18;100.00;102040.34;5013318;28;20065;-83
2022/12/06 00:26:08;;;;;;;15.32;9.80;;;;;;;4.11;100.00;102024.28;5013268;28;20018;-85
2022/12/06 00:28:35;;;;;;;14.73;9.93;;;;;;;4.27;100.00;102051.28;5013031;28;20049;-86
2022/12/06 00:31:03;;;;;;;13.65;9.00;;;;;;;4.29;100.00;102054.63;5013163;28;20133;-83
2022/12/06 00:33:29;;;;;;;16.00;10.52;;;;;;;4.26;100.00;102047.03;5012810;28;20029;-85
2022/12/06 00:36:00;;;;;;;15.18;10.27;;;;;;;4.24;100.00;102042.81;5012996;28;20022;-86
2022/12/06 00:38:26;;;;;;;14.35;9.60;;;;;;;4.36;100.00;102054.53;5013224;28;20030;-84
2022/12/06 00:41:03;;;;;;;14.25;10.15;;;;;;;4.36;100.00;102049.44;5013368;28;20029;-83
2022/12/06 00:43:30;;;;;;;15.40;9.73;;;;;;;4.29;100.00;102035.91;5013248;28;20026;-83
2022/12/06 00:45:56;;;;;;;14.68;9.43;;;;;;;4.36;100.00;102042.59;5015025;28;20092;-83
2022/12/06 00:48:21;;;;;;;16.13;10.27;;;;;;;4.39;100.00;102046.81;5016673;28;20370;-83
2022/12/06 00:50:47;;;;;;;14.57;9.35;;;;;;;4.06;100.00;101995.41;5017013;28;20029;-85
2022/12/06 00:53:12;;;;;;;14.30;9.60;;;;;;;4.39;100.00;102046.81;5017024;28;20050;-83
2022/12/06 00:55:38;;;;;;;13.05;8.05;;;;;;;4.37;100.00;102046.84;5017000;28;20065;-84
2022/12/06 00:58:03;;;;;;;13.50;8.80;;;;;;;4.37;100.00;102046.84;5016969;28;20083;-85
2022/12/06 01:00:29;;;;;;;14.40;7.88;;;;;;;4.14;100.00;102019.13;5016955;28;20135;-85
2022/12/06 01:02:56;;;;;;;13.57;7.70;;;;;;;4.31;100.00;102057.16;5016497;28;20033;-85
2022/12/06 01:05:22;;;;;;;11.85;7.68;;;;;;;4.11;100.00;102015.75;5016715;28;20354;-82
2022/12/06 01:07:47;;;;;;;12.50;7.40;;;;;;;4.26;100.00;102054.69;5016901;28;20033;-84
2022/12/06 01:10:13;;;;;;;12.38;7.93;;;;;;;4.17;100.00;102036.13;5016715;28;20363;-85
2022/12/06 01:12:38;;;;;;;12.50;7.90;;;;;;;4.17;100.00;102029.28;5016996;28;20030;-84
2022/12/06 01:15:04;;;;;;;14.30;8.38;;;;;;;4.31;100.00;102045.22;5016462;28;20029;-85
2022/12/06 01:17:29;;;;;;;12.95;8.48;;;;;;;4.38;100.00;102050.25;5016374;28;20034;-85
2022/12/06 01:19:55;;;;;;;13.75;8.77;;;;;;;4.42;100.00;102047.59;5016017;28;20049;-85
2022/12/06 01:22:20;;;;;;;15.82;9.10;;;;;;;4.22;100.00;102022.38;5016259;28;20115;-85
2022/12/06 01:24:46;;;;;;;14.95;9.10;;;;;;;4.40;100.00;102053.59;5016096;28;20501;-83
2022/12/06 01:27:12;;;;;;;18.02;9.52;;;;;;;4.41;100.00;102055.28;5016407;28;20061;-84
2022/12/06 01:29:37;;;;;;;17.73;9.88;;;;;;;4.37;100.00;102048.56;5015924;28;20026;-84
2022/12/06 01:32:03;;;;;;;15.45;9.70;;;;;;;4.32;100.00;102046.91;5016548;28;20026;-81
2022/12/06 01:34:28;;;;;;;15.00;9.80;;;;;;;4.39;100.00;102054.47;5015954;28;20033;-84
2022/12/06 01:36:53;;;;;;;15.90;9.80;;;;;;;4.12;100.00;102008.06;5016188;28;20032;-83
2022/12/06 01:39:19;;;;;;;17.88;10.18;;;;;;;4.30;100.00;102040.97;5016138;28;20030;-82
2022/12/06 01:41:44;;;;;;;13.95;8.73;;;;;;;4.19;100.00;102019.03;5015991;28;20387;-84
2022/12/06 01:44:56;;;;;;;15.57;9.70;;;;;;;4.41;100.00;102055.28;5015990;28;20401;-83
2022/12/06 01:47:27;;;;;;;;;;;;;;;4.45;100.00;102057.78;5015147;28;20512;-84
2022/12/06 01:50:18;;;;;;;14.30;8.48;;;;;;;4.42;100.00;102052.69;5015816;28;19920;-81
2022/12/06 01:52:52;;;;;;;13.95;8.45;;;;;;;4.31;100.00;102031.59;5016123;28;20065;-84
2022/12/06 01:55:21;;;;;;;15.73;8.23;;;;;;;4.40;100.00;102048.50;5015782;28;20026;-84
2022/12/06 01:57:50;;;;;;;13.23;8.10;;;;;;;4.37;100.00;102046.84;5014447;28;20389;-84
2022/12/06 02:00:16;;;;;;;14.85;8.00;;;;;;;4.37;100.00;102046.00;5015848;28;20100;-84
2022/12/06 02:02:41;;;;;;;12.65;7.78;;;;;;;4.37;100.00;102046.00;5015858;28;20097;-85
2022/12/06 02:05:07;;;;;;;12.20;7.35;;;;;;;4.25;100.00;102027.44;5015538;28;20033;-83
2022/12/06 02:07:33;;;;;;;13.98;7.45;;;;;;;4.25;100.00;102027.44;5015500;28;20029;-84
2022/12/06 02:09:58;;;;;;;15.50;8.20;;;;;;;4.36;100.00;102049.44;5015692;28;20022;-81
2022/12/06 02:12:23;;;;;;;11.52;7.22;;;;;;;4.35;100.00;102050.31;5015064;28;20148;-82
2022/12/06 02:14:53;;;;;;;13.65;8.02;;;;;;;4.34;100.00;102043.50;5015540;28;20026;-83
2022/12/06 02:17:39;;;;;;;12.10;7.55;;;;;;;4.38;100.00;102043.41;5015383;28;20030;-85
2022/12/06 02:20:23;;;;;;;14.98;7.35;;;;;;;4.35;100.00;102043.47;5015240;28;20041;-84
2022/12/06 02:23:07;;;;;;;11.88;7.63;;;;;;;4.37;100.00;102046.84;5015189;28;20018;-80
2022/12/06 02:25:40;;;;;;;14.05;7.75;;;;;;;4.36;100.00;102049.44;5015458;28;20053;-83
2022/12/06 02:28:14;;;;;;;11.60;6.85;;;;;;;4.32;100.00;102051.19;5015109;28;20038;-81
2022/12/06 02:30:48;;;;;;;13.40;7.13;;;;;;;4.32;100.00;102040.94;5013886;28;20030;-81
2022/12/06 02:33:35;;;;;;;12.95;7.22;;;;;;;4.29;100.00;102046.97;5013904;28;20033;-83
2022/12/06 02:36:11;;;;;;;15.00;8.00;;;;;;;4.20;100.00;102031.78;5014866;28;20081;-84
2022/12/06 02:39:06;;;;;;;13.25;7.63;;;;;;;4.28;100.00;102040.16;5015341;28;20018;-82
2022/12/06 02:41:41;;;;;;;14.13;8.15;;;;;;;4.21;100.00;102030.91;4976933;28;20034;-83
2022/12/06 02:44:14;;;;;;;18.27;8.57;;;;;;;4.18;100.00;102020.75;4993597;28;20489;-83
2022/12/06 02:46:42;;;;;;;15.82;8.50;;;;;;;4.24;100.00;102030.88;4993334;28;20053;-83
2022/12/06 02:49:10;;;;;;;13.52;7.72;;;;;;;4.26;100.00;102025.72;4993203;28;20049;-80
2022/12/06 02:51:36;;;;;;;14.20;7.97;;;;;;;4.28;100.00;102032.50;4992938;28;20108;-84
2022/12/06 02:54:06;;;;;;;12.70;7.47;;;;;;;4.20;100.00;102016.44;4992944;28;20031;-81
2022/12/06 02:56:33;;;;;;;15.50;8.23;;;;;;;4.31;100.00;102018.81;4976827;28;20218;-82
2022/12/06 02:58:58;;;;;;;14.05;7.40;;;;;;;4.32;100.00;102030.72;4993020;28;20045;-81
2022/12/06 03:01:28;;;;;;;16.27;7.95;;;;;;;4.26;100.00;102018.06;4993037;28;20030;-82
2022/12/06 03:04:06;;;;;;;15.57;7.70;;;;;;;4.32;100.00;102023.06;4992851;28;20076;-83
2022/12/06 03:07:07;;;;;;;15.85;7.97;;;;;;;4.35;100.00;102027.28;4992550;28;20038;-84
2022/12/06 03:10:04;;;;;;;17.70;7.93;;;;;;;4.32;100.00;102023.88;4988414;28;20034;-83
2022/12/06 03:13:00;;;;;;;17.38;8.52;;;;;;;4.35;100.00;102030.69;4992666;28;20039;-82
2022/12/06 03:15:39;;;;;;;17.42;8.85;;;;;;;4.34;100.00;102029.00;4976300;28;20387;-81
2022/12/06 03:18:18;;;;;;;16.67;8.88;;;;;;;4.34;100.00;102036.69;4998674;28;20415;-79
2022/12/06 03:20:57;;;;;;;17.40;8.77;;;;;;;4.29;100.00;102026.50;5014199;28;20359;-80
2022/12/06 03:23:29;;;;;;;18.23;9.20;;;;;;;4.22;100.00;102022.38;5014165;28;20076;-84
2022/12/06 03:25:58;;;;;;;16.80;8.63;;;;;;;4.14;100.00;102008.91;5014102;28;20018;-82
2022/12/06 03:28:25;;;;;;;20.60;9.32;;;;;;;4.23;100.00;102020.69;5014200;28;20096;-84
2022/12/06 03:30:53;;;;;;;17.38;8.20;;;;;;;4.23;100.00;102020.69;5014166;28;20032;-84
2022/12/06 03:33:22;;;;;;;17.30;8.35;;;;;;;4.34;100.00;102043.50;5013896;28;20052;-84
2022/12/06 03:35:49;;;;;;;16.58;9.27;;;;;;;4.33;100.00;102037.56;5013642;28;20105;-81
2022/12/06 03:38:28;;;;;;;19.30;8.68;;;;;;;4.26;100.00;102026.56;5013974;28;20030;-82
2022/12/06 03:40:58;;;;;;;19.75;9.70;;;;;;;4.34;100.00;102035.84;5014226;28;20377;-85
2022/12/06 03:43:24;;;;;;;16.30;8.82;;;;;;;4.34;100.00;102034.13;5014096;28;20091;-84
2022/12/06 03:46:48;;;;;;;16.38;9.10;;;;;;;4.19;100.00;102007.09;5014103;28;20096;-84
2022/12/06 03:49:19;;;;;;;16.95;8.50;;;;;;;4.17;100.00;102008.00;4953323;28;20043;-84
2022/12/06 03:51:45;;;;;;;15.43;8.30;;;;;;;4.28;100.00;102018.88;4953141;29;20491;-84
2022/12/06 03:54:11;;;;;;;17.42;8.52;;;;;;;4.32;100.00;102034.13;4953395;29;20122;-84
2022/12/06 03:56:37;;;;;;;18.40;8.60;;;;;;;4.27;100.00;102028.25;4953278;29;20039;-84
2022/12/06 03:59:11;;;;;;;17.23;8.82;;;;;;;4.19;100.00;102019.03;4953258;28;20035;-85
2022/12/06 04:01:38;;;;;;;21.17;9.20;;;;;;;4.18;100.00;102004.56;4953094;29;20038;-84
2022/12/06 04:04:03;;;;;;;17.65;8.63;;;;;;;4.26;100.00;102023.19;4953109;28;20068;-84
2022/12/06 04:06:28;;;;;;;15.07;8.43;;;;;;;4.34;100.00;102028.16;4953142;28;20074;-85
2022/12/06 04:09:51;;;;;;;19.75;9.55;;;;;;;4.20;100.00;102008.78;4953105;28;20031;-84
2022/12/06 04:11:39;;;;;;;17.75;8.45;;;;;;;4.20;100.00;101998.56;4952995;29;20039;-85
2022/12/06 04:14:04;;;;;;;16.45;8.98;;;;;;;4.20;100.00;102007.94;4953137;29;20488;-85
2022/12/06 04:19:13;;;;;;;14.52;8.25;;;;;;;4.31;100.00;102029.88;4953057;29;20042;-84
2022/12/06 04:24:22;;;;;;;17.70;8.43;;;;;;;4.10;100.00;101991.91;4960624;28;20037;-84
2022/12/06 04:26:48;;;;;;;20.02;8.27;;;;;;;4.30;100.00;102027.34;5012870;28;20441;-82
2022/12/06 04:40:09;;;;;;;13.90;7.65;;;;;;;4.28;100.00;102027.38;5013224;28;20060;-84
2022/12/06 04:45:19;;;;;;;17.55;8.07;;;;;;;4.34;100.00;102035.84;5012451;28;20101;-84
2022/12/06 04:47:44;;;;;;;18.08;7.55;;;;;;;4.14;100.00;102008.91;5013203;28;20030;-82
2022/12/06 04:50:09;;;;;;;16.65;8.05;;;;;;;4.24;100.00;102025.75;5013389;28;20018;-84
2022/12/06 04:52:35;;;;;;;16.88;8.30;;;;;;;4.21;100.00;102018.13;5013062;28;20034;-83
2022/12/06 04:55:00;;;;;;;20.08;7.85;;;;;;;4.23;100.00;102015.56;5013230;28;20080;-84
2022/12/06 04:57:25;;;;;;;18.30;7.55;;;;;;;4.29;100.00;102030.78;5013140;28;20367;-84
2022/12/06 04:59:50;;;;;;;17.88;7.65;;;;;;;4.25;100.00;102027.44;5013079;28;20458;-82
2022/12/06 05:02:16;;;;;;;15.48;7.57;;;;;;;4.30;100.00;102024.78;5011760;28;20038;-82
2022/12/06 05:04:41;;;;;;;18.75;7.50;;;;;;;4.20;100.00;102016.44;5012960;28;20385;-84
2022/12/06 05:07:08;;;;;;;17.17;7.20;;;;;;;4.30;100.00;102023.09;5011860;28;20041;-84
2022/12/06 05:09:34;;;;;;;18.77;7.97;;;;;;;4.28;100.00;102029.94;5013026;28;20057;-81
2022/12/06 05:11:59;;;;;;;13.52;7.13;;;;;;;4.29;100.00;102023.13;5012972;28;20030;-83
2022/12/06 05:14:25;;;;;;;15.45;7.38;;;;;;;4.05;100.00;101982.66;5012938;28;20030;-83
2022/12/06 05:16:50;;;;;;;13.70;7.50;;;;;;;4.21;100.00;102007.91;5012925;28;20033;-84
2022/12/06 05:19:15;;;;;;;17.65;7.78;;;;;;;4.21;100.00;102015.56;5011605;28;20041;-83
2022/12/06 05:21:41;;;;;;;15.68;7.43;;;;;;;4.12;100.00;102002.94;5013027;28;20022;-77
2022/12/06 05:24:06;;;;;;;15.35;6.90;;;;;;;4.10;100.00;101998.75;5012849;28;20072;-83
2022/12/06 05:26:32;;;;;;;15.95;6.80;;;;;;;4.19;100.00;102019.88;5012846;28;20416;-81
2022/12/06 05:28:57;;;;;;;12.93;6.47;;;;;;;4.09;100.00;102010.69;5012704;28;20128;-80
2022/12/06 05:31:24;;;;;;;14.25;6.50;;;;;;;4.07;100.00;102007.31;5013695;28;20025;-84
2022/12/06 05:33:50;;;;;;;13.63;6.55;;;;;;;4.17;100.00;102023.34;5016226;28;20037;-81
2022/12/06 05:36:21;;;;;;;16.58;6.80;;;;;;;4.13;100.00;102012.31;5016163;28;20037;-81
2022/12/06 05:38:48;;;;;;;15.77;6.70;;;;;;;4.10;100.00;101996.19;5016143;28;20026;-84
2022/12/06 05:41:14;;;;;;;14.23;6.93;;;;;;;4.00;100.00;101990.38;5016309;28;20018;-83
2022/12/06 05:43:39;;;;;;;11.27;5.68;;;;;;;4.11;100.00;102011.50;5015984;28;20041;-84
2022/12/06 05:46:05;;;;;;;16.08;6.57;;;;;;;4.20;100.00;102018.16;5016196;28;20053;-82
2022/12/06 05:48:30;;;;;;;15.68;6.50;;;;;;;4.10;100.00;102004.69;5015994;28;20026;-83
2022/12/06 05:50:56;;;;;;;15.68;6.45;;;;;;;4.22;100.00;102022.38;5015794;28;20025;-83
2022/12/06 05:53:21;;;;;;;12.77;6.03;;;;;;;4.22;100.00;102022.38;5015622;28;20034;-81
2022/12/06 05:55:47;;;;;;;14.68;6.60;;;;;;;4.22;100.00;102027.47;5015840;28;20192;-84
2022/12/06 05:58:13;;;;;;;14.57;5.70;;;;;;;4.07;100.00;102007.31;5016031;28;20381;-79
2022/12/06 06:00:38;;;;;;;10.68;5.80;;;;;;;4.20;100.00;102025.81;5015832;28;20025;-82
2022/12/06 06:03:03;;;;;;;14.32;6.22;;;;;;;4.10;100.00;102007.25;5015679;28;20083;-81
2022/12/06 06:05:29;;;;;;;12.95;6.25;;;;;;;4.18;100.00;102027.56;5015506;28;20038;-85
2022/12/06 06:07:55;;;;;;;10.85;5.35;;;;;;;4.17;100.00;102031.00;5015911;28;20049;-83
2022/12/06 06:10:21;;;;;;;13.13;5.90;;;;;;;4.16;100.00;102030.16;5015382;28;20037;-77
2022/12/06 06:12:46;;;;;;;13.95;5.82;;;;;;;4.17;100.00;102033.56;5015552;28;20080;-82
2022/12/06 06:15:12;;;;;;;11.07;5.60;;;;;;;4.06;100.00;102009.91;5015480;28;20038;-84
2022/12/06 06:17:39;;;;;;;13.10;5.60;;;;;;;3.07;100.00;101856.56;5015480;28;20018;-85
2022/12/06 06:20:06;;;;;;;11.15;5.30;;;;;;;4.05;100.00;102024.38;5015485;28;20026;-79
2022/12/06 06:22:35;;;;;;;12.60;5.53;;;;;;;3.77;100.00;101989.94;5015307;28;20033;-80
2022/12/06 06:25:02;;;;;;;12.05;5.53;;;;;;;3.89;100.00;102013.56;5015012;28;20101;-85
2022/12/06 06:27:27;;;;;;;14.13;5.45;;;;;;;3.87;100.00;102017.88;5015024;28;20041;-85
2022/12/06 06:29:53;;;;;;;13.82;5.70;;;;;;;3.93;100.00;102032.25;5015251;28;20026;-82
2022/12/06 06:32:19;;;;;;;12.50;5.95;;;;;;;3.77;100.00;102005.25;5015092;28;20520;-83
2022/12/06 06:34:45;;;;;;;13.60;5.47;;;;;;;3.59;100.00;101981.69;5015111;28;20026;-85
2022/12/06 06:37:10;;;;;;;12.18;5.47;;;;;;;3.88;100.00;102027.22;5014033;28;20525;-80
2022/12/06 06:39:35;;;;;;;11.48;5.53;;;;;;;3.76;100.00;102003.59;5023256;22;20046;-82
2022/12/06 06:42:01;;;;;;;11.88;5.32;;;;;;;3.81;100.00;102012.00;5015039;28;20061;-80
2022/12/06 06:47:01;;;;;;;14.20;5.90;;;;;;;3.83;100.00;102026.44;4319785;26;20046;-82
2022/12/06 06:49:26;;;;;;;12.10;5.40;;;;;;;3.59;100.00;101993.63;5014956;28;20033;-82
2022/12/06 06:51:52;;;;;;;13.80;5.93;;;;;;;3.74;100.00;102017.22;5014656;28;20064;-80
2022/12/06 06:54:17;;;;;;;10.73;5.22;;;;;;;3.65;100.00;102007.16;5014810;28;20034;-81
2022/12/06 06:56:44;;;;;;;13.25;5.32;;;;;;;3.68;100.00;102021.56;5014575;28;20568;-80
2022/12/06 06:59:09;;;;;;;12.25;5.50;;;;;;;3.72;100.00;102025.75;5014934;28;20050;-83
2022/12/06 07:01:44;;;;;;;10.90;5.40;;;;;;;3.23;100.00;101938.81;5124854;22;20053;-85
2022/12/06 07:04:21;;;;;;;11.73;5.20;;;;;;;3.70;100.00;102023.22;5034465;28;20030;-86
2022/12/06 07:06:46;;;;;;;11.35;5.25;;;;;;;3.68;100.00;102022.41;5034128;28;20025;-85
2022/12/06 07:09:12;;;;;;;9.77;5.10;;;;;;;3.63;100.00;102021.63;5034283;28;20105;-85
2022/12/06 07:11:37;;;;;;;11.07;5.35;;;;;;;3.63;100.00;102015.69;5034176;28;20061;-84
2022/12/06 07:14:03;;;;;;;12.30;5.85;;;;;;;3.63;100.00;102024.19;5034085;28;20029;-85
2022/12/06 07:16:28;;;;;;;14.43;5.50;;;;;;;3.67;100.00;102022.44;5034071;28;20026;-86
2022/12/06 07:18:54;;;;;;;11.20;5.35;;;;;;;3.68;100.00;102024.13;5034017;28;20032;-87
2022/12/06 07:21:22;;;;;;;14.55;5.43;;;;;;;3.69;100.00;102020.69;5032501;28;20055;-85
2022/12/06 07:23:48;;;;;;;12.32;4.80;;;;;;;3.69;100.00;102025.81;5034276;28;20033;-85
2022/12/06 07:26:15;;;;;;;10.80;5.00;;;;;;;3.69;100.00;102018.16;5033873;28;20440;-86
2022/12/06 07:28:59;;;;;;;11.63;4.57;;;;;;;3.09;100.00;101929.66;5034563;28;20025;-85
2022/12/06 07:31:26;;;;;;;9.75;4.18;;;;;;;3.29;100.00;101959.16;5033898;28;20022;-90
2022/12/06 07:33:57;;;;;;;9.70;4.53;;;;;;;3.35;100.00;101967.59;5015925;28;20116;-84
2022/12/06 07:36:28;;;;;;;10.55;4.55;;;;;;;3.47;100.00;101988.69;5033564;28;20055;-83
2022/12/06 07:38:55;;;;;;;9.55;4.22;;;;;;;3.63;100.00;102026.72;5033783;28;20064;-84
2022/12/06 07:46:54;;;;;;;11.43;4.43;;;;;;;3.59;100.00;102031.94;5033656;28;20500;-82
2022/12/06 07:49:19;;;;;;;10.85;4.75;;;;;;;3.33;100.00;101983.78;5033275;28;20034;-79
2022/12/06 07:51:45;;;;;;;11.50;5.03;;;;;;;3.42;100.00;101999.81;5033470;28;20030;-83
2022/12/06 07:54:10;;;;;;;11.15;4.70;;;;;;;3.62;100.00;102040.38;5033494;28;20044;-81
2022/12/06 07:56:36;;;;;;;9.13;4.50;;;;;;;3.66;100.00;102036.09;5032271;28;20103;-83
2022/12/06 07:59:02;;;;;;;9.77;4.35;;;;;;;3.69;100.00;102041.97;5033510;28;20060;-80
2022/12/06 08:01:27;;;;;;;14.82;5.45;;;;;;;3.72;100.00;102044.47;5033072;28;20401;-76
2022/12/06 08:03:54;;;;;;;9.80;4.60;;;;;;;3.49;100.00;102000.56;5033311;28;20033;-80
2022/12/06 08:06:21;;;;;;;9.63;4.30;;;;;;;3.61;100.00;102012.31;5016034;28;20072;-76
2022/12/06 08:08:46;;;;;;;11.10;4.28;;;;;;;3.82;100.00;102045.19;5014940;28;20148;-75
2022/12/06 08:11:11;;;;;;;10.60;4.15;;;;;;;3.83;100.00;102046.88;5032918;28;20108;-75
2022/12/06 08:13:37;;;;;;;8.55;3.80;;;;;;;3.83;100.00;102034.09;5032061;28;20029;-77
2022/12/06 08:16:07;;;;;;;10.20;4.00;;;;;;;3.77;100.00;102023.16;5033516;28;20095;-76
2022/12/06 08:18:32;;;;;;;8.68;3.92;;;;;;;3.66;100.00;101998.63;5032955;28;20060;-76
2022/12/06 08:20:58;;;;;;;10.30;3.80;;;;;;;3.83;100.00;102040.91;5014910;28;20067;-76
2022/12/06 08:23:23;;;;;;;8.05;3.95;;;;;;;3.76;100.00;102044.47;5033029;28;20025;-77
2022/12/06 08:25:59;;;;;;;9.00;3.70;;;;;;;3.68;100.00;102049.66;5032978;28;20033;-77
2022/12/06 08:28:25;;;;;;;9.48;4.13;;;;;;;3.56;100.00;102034.53;5032662;28;20033;-77
2022/12/06 08:30:51;;;;;;;6.65;3.80;;;;;;;3.29;100.00;102021.28;5032891;28;20021;-81
2022/12/06 08:33:16;;;;;;;11.30;3.83;;;;;;;3.34;100.00;102039.06;5014497;28;20041;-77
2022/12/06 08:35:41;;;;;;;6.53;3.40;;;;;;;3.22;100.00;102040.09;5033004;28;20030;-76
2022/12/06 08:38:07;;;;;;;10.25;4.65;;;;;;;2.92;100.00;102013.25;5032693;28;20388;-76
2022/12/06 08:40:32;;;;;;;8.55;4.10;;;;;;;3.00;100.00;102044.63;5032814;28;20032;-83
2022/12/06 08:42:57;;;;;;;8.60;4.25;;;;;;;2.95;100.00;102050.63;5032563;28;20025;-82
2022/12/06 08:45:23;;;;;;;10.23;4.47;;;;;;;2.89;100.00;102049.00;5032271;28;20108;-80
2022/12/06 08:47:48;;;;;;;11.25;4.18;;;;;;;2.73;100.00;102040.69;5032778;28;20040;-77
2022/12/06 08:50:13;;;;;;;10.57;4.30;;;;;;;2.70;100.00;102048.38;5033125;28;20037;-78
2022/12/06 08:52:38;;;;;;;10.02;4.63;;;;;;;2.72;100.00;102064.50;5032840;28;20022;-82
2022/12/06 08:55:04;;;;;;;9.68;4.47;;;;;;;2.69;100.00;102062.00;5032577;28;20389;-82
2022/12/06 08:57:31;;;;;;;8.63;4.05;;;;;;;2.66;100.00;102061.19;5032273;28;20116;-79
2022/12/06 08:59:56;;;;;;;10.15;4.78;;;;;;;2.65;100.00;102057.75;5032475;28;20373;-78
2022/12/06 09:02:22;;;;;;;7.80;4.20;;;;;;;2.62;100.00;102064.63;5032518;28;20040;-81
2022/12/06 09:04:49;;;;;;;11.85;5.00;;;;;;;2.62;100.00;102064.63;5032846;28;20106;-81
2022/12/06 09:07:15;;;;;;;10.45;5.70;;;;;;;2.68;100.00;102064.56;5034849;28;20101;-76
2022/12/06 09:09:40;;;;;;;10.07;6.05;;;;;;;2.69;100.00;102068.78;5036259;28;20495;-83
2022/12/06 09:12:05;;;;;;;14.82;6.13;;;;;;;2.58;100.00;102041.69;5036142;28;20030;-79
2022/12/06 09:14:31;;;;;;;15.15;6.45;;;;;;;2.76;100.00;102065.34;5018418;28;20084;-80
2022/12/06 09:16:56;;;;;;;13.23;6.35;;;;;;;2.82;100.00;102067.78;5036187;28;20037;-83
2022/12/06 09:19:21;;;;;;;12.23;5.90;;;;;;;2.83;100.00;102072.88;5036184;28;20045;-87
2022/12/06 09:21:47;;;;;;;18.08;6.47;;;;;;;2.74;100.00;102050.00;5036317;28;20033;-85
2022/12/06 09:24:14;;;;;;;13.65;6.05;;;;;;;2.93;100.00;102073.63;5018511;28;20051;-80
2022/12/06 09:26:42;;;;;;;13.57;6.30;;;;;;;2.86;100.00;102056.72;5036138;28;20039;-80
2022/12/06 09:29:08;;;;;;;12.48;6.15;;;;;;;2.84;100.00;102048.22;5036021;28;20075;-85
2022/12/06 09:31:38;;;;;;;14.60;5.75;;;;;;;3.07;100.00;102073.47;5035280;28;20416;-78
2022/12/06 09:34:03;;;;;;;14.05;6.00;;;;;;;3.11;100.00;102075.13;5035615;28;20473;-84
2022/12/06 09:36:29;;;;;;;12.57;5.35;;;;;;;2.98;100.00;102048.06;5035862;28;20068;-79
2022/12/06 09:39:03;;;;;;;12.15;5.65;;;;;;;3.23;100.00;102076.66;5036135;28;20524;-76
2022/12/06 09:41:53;;;;;;;11.77;5.43;;;;;;;3.25;100.00;102080.06;5035875;28;20021;-80
2022/12/06 09:44:58;;;;;;;13.15;5.28;;;;;;;3.29;100.00;102072.34;5036171;28;20381;-83
2022/12/06 09:47:33;;;;;;;12.75;5.50;;;;;;;3.31;100.00;102073.16;5018109;28;20473;-79
2022/12/06 09:50:22;;;;;;;9.77;5.63;;;;;;;3.16;100.00;102048.69;5035933;28;20022;-82
2022/12/06 09:52:57;;;;;;;11.68;5.07;;;;;;;3.17;100.00;102042.72;5035631;28;20025;-85
2022/12/06 09:55:33;;;;;;;10.93;5.35;;;;;;;2.98;100.00;102009.78;5035504;28;20037;-84
2022/12/06 09:58:18;;;;;;;10.50;4.70;;;;;;;3.37;100.00;102070.53;5035525;28;20488;-86
2022/12/06 10:01:01;;;;;;;11.43;5.55;;;;;;;3.45;100.00;102068.72;5016776;28;20049;-81
2022/12/06 10:03:47;;;;;;;10.63;5.78;;;;;;;3.21;100.00;102027.34;5035557;28;20068;-82
2022/12/06 10:06:17;;;;;;;11.10;5.30;;;;;;;3.37;100.00;102049.28;5017680;28;20030;-82
2022/12/06 10:12:28;;;;;;;10.85;5.70;;;;;;;3.52;100.00;102061.81;5035482;28;20067;-80
2022/12/06 10:15:16;;;;;;;11.05;5.65;;;;;;;2.65;100.00;101920.06;5035140;28;20493;-82
2022/12/06 10:18:05;;;;;;;10.95;5.90;;;;;;;3.27;100.00;102012.81;5029015;23;20049;-82
2022/12/06 10:20:43;;;;;;;12.35;5.53;;;;;;;3.42;100.00;102032.16;5017545;28;20061;-82
2022/12/06 10:23:50;;;;;;;10.18;6.05;;;;;;;3.62;100.00;102062.53;5035139;28;20026;-81
2022/12/06 10:26:22;;;;;;;11.10;5.88;;;;;;;3.68;100.00;102068.41;5016704;28;20036;-83
2022/12/06 10:29:11;;;;;;;10.65;5.68;;;;;;;3.69;100.00;102067.53;5034915;28;20037;-81
2022/12/06 10:32:02;;;;;;;13.35;6.22;;;;;;;3.70;100.00;102069.22;5034978;28;20033;-79
2022/12/06 10:34:37;;;;;;;10.27;6.10;;;;;;;3.53;100.00;102022.63;5034637;28;20025;-81
2022/12/06 10:37:45;;;;;;;11.55;5.55;;;;;;;3.76;100.00;102065.75;5034621;28;20060;-86
2022/12/06 10:40:29;;;;;;;10.98;5.75;;;;;;;3.41;100.00;102008.34;5034840;28;20029;-81
2022/12/06 10:44:03;;;;;;;10.48;4.95;;;;;;;3.53;100.00;102009.88;5034651;28;20029;-81
2022/12/06 10:47:05;;;;;;;10.55;4.85;;;;;;;3.90;100.00;102052.75;5033328;28;20041;-82
2022/12/06 10:49:49;;;;;;;12.50;5.15;;;;;;;3.90;100.00;102055.28;5034592;28;20504;-80
2022/12/06 10:52:42;;;;;;;8.68;3.70;;;;;;;3.89;100.00;102059.56;5034577;28;20025;-81
2022/12/06 10:55:07;;;;;;;8.07;3.97;;;;;;;3.92;100.00;102058.66;5034473;28;20053;-81
2022/12/06 10:57:42;;;;;;;9.48;4.28;;;;;;;3.93;100.00;102058.66;5034336;28;20123;-80
2022/12/06 11:00:22;;;;;;;9.50;4.18;;;;;;;3.60;100.00;101990.19;5034214;28;20030;-81
2022/12/06 11:03:30;;;;;;;8.27;3.75;;;;;;;3.66;100.00;102005.44;5034378;28;20108;-77
2022/12/06 11:06:02;;;;;;;10.45;3.83;;;;;;;3.66;100.00;102003.72;5016136;28;20119;-80
2022/12/06 11:08:49;;;;;;;9.05;4.18;;;;;;;3.54;100.00;101980.06;5033327;28;20029;-80
2022/12/06 11:11:25;;;;;;;8.38;3.95;;;;;;;4.03;100.00;102047.44;5034174;28;20101;-80
2022/12/06 11:14:09;;;;;;;7.25;3.75;;;;;;;4.10;100.00;102049.88;5033958;28;20091;-80
2022/12/06 11:20:21;;;;;;;11.15;5.50;;;;;;;3.71;100.00;101963.59;5059669;23;20053;-78
2022/12/06 11:23:12;;;;;;;10.02;5.43;;;;;;;4.05;100.00;102005.66;5052686;28;20029;-82
2022/12/06 11:26:30;;;;;;;9.40;4.95;;;;;;;4.41;100.00;102047.63;5054105;28;20029;-82
2022/12/06 11:29:14;;;;;;;10.88;4.40;;;;;;;4.45;100.00;102045.00;5053360;28;20060;-81
2022/12/06 11:31:56;;;;;;;8.75;4.57;;;;;;;4.10;100.00;101981.69;5052709;28;20021;-82
2022/12/06 11:34:37;;;;;;;9.63;4.18;;;;;;;3.69;100.00;101909.16;5068727;28;20032;-79
2022/12/06 11:37:04;;;;;;;13.52;3.90;;;;;;;3.58;100.00;101887.22;5053718;28;20021;-81
2022/12/06 11:39:31;;;;;;;10.57;3.90;;;;;;;3.96;100.00;101947.88;5053602;28;20424;-81
2022/12/06 11:42:00;;;;;;;11.68;5.75;;;;;;;4.48;100.00;102024.47;5053865;28;20024;-81
2022/12/06 11:44:35;;;;;;;9.60;4.10;;;;;;;4.53;100.00;102043.16;5053672;28;20032;-84
2022/12/06 11:47:04;;;;;;;7.25;3.72;;;;;;;4.54;100.00;102031.19;5053425;28;20362;-82
2022/12/06 11:49:42;;;;;;;11.07;4.05;;;;;;;4.46;100.00;102012.59;5053490;28;20021;-81
2022/12/06 11:52:14;;;;;;;8.57;3.53;;;;;;;4.62;100.00;102034.44;5052100;28;20499;-83
2022/12/06 11:54:57;;;;;;;11.35;4.60;;;;;;;4.65;100.00;102026.72;5053612;28;20032;-82
2022/12/06 11:57:37;;;;;;;6.43;3.45;;;;;;;4.78;100.00;102032.44;5053425;28;20025;-83
2022/12/06 12:00:16;;;;;;;8.02;3.47;;;;;;;4.78;100.00;102033.28;5053332;28;20376;-82
2022/12/06 12:02:44;;;;;;;16.45;3.90;;;;;;;4.80;100.00;102026.41;5052809;28;20032;-81
2022/12/06 12:05:18;;;;;;;6.60;3.15;;;;;;;5.12;100.00;102002.72;5053505;28;20029;-78
2022/12/06 12:07:49;;;;;;;9.40;3.97;;;;;;;5.52;100.00;102014.66;5053153;28;20534;-79
2022/12/06 12:10:37;;;;;;;10.00;3.83;;;;;;;5.70;100.00;102006.53;5053344;28;20163;-80
2022/12/06 12:14:01;;;;;;;8.25;3.30;;;;;;;5.51;100.00;102009.56;5053087;28;20119;-80